Observations for RIMINI CIV IT-AFB, Italy (LIPR)

LIPR 180650Z 29003KT 240V040 CAVOK 25/17 Q1015  
LIPR 180620Z VRB02KT CAVOK 23/16 Q1015  
LIPR 180550Z VRB02KT CAVOK 23/16 Q1015  
LIPR 180520Z 18002KT CAVOK 21/16 Q1015  
LIPR 180450Z AUTO 18002KT 9999 NCD 20/16 Q1015  
LIPR 180420Z AUTO 03001KT 9999 NCD 19/15 Q1014  
LIPR 180350Z AUTO VRB02KT 9999 NCD 18/15 Q1014  
LIPR 180320Z AUTO 20002KT 9999 NCD 18/15 Q1014  
LIPR 180250Z AUTO 20001KT 9999 NCD 18/15 Q1014  
LIPR 180220Z AUTO 21002KT 9999 NCD 19/15 Q1014  
LIPR 180150Z AUTO 21004KT 9999 NCD 18/15 Q1014  
LIPR 180120Z AUTO 22003KT 9999 NCD 18/15 Q1015  
LIPR 180050Z AUTO VRB01KT 9999 NCD 19/15 Q1015  
LIPR 180020Z AUTO 22003KT 180V250 9999 NCD 19/16 Q1015  
LIPR 172350Z AUTO 20002KT 9999 NCD 20/16 Q1015  
LIPR 172320Z AUTO 20002KT 9999 NCD 19/17 Q1015  
LIPR 172250Z AUTO 21004KT 9999 NCD 19/17 Q1015  
LIPR 172220Z AUTO 20005KT 9999 NCD 20/17 Q1015  
LIPR 172150Z AUTO 19005KT 9999 NCD 20/17 Q1015  
LIPR 172120Z VRB02KT CAVOK 20/17 Q1015  
LIPR 172050Z 19003KT CAVOK 20/17 Q1015  
LIPR 172020Z 20003KT CAVOK 23/18 Q1014  
LIPR 171950Z 15002KT CAVOK 23/18 Q1014  
LIPR 171920Z 13003KT CAVOK 24/18 Q1014  
LIPR 171850Z 10005KT 070V130 CAVOK 24/18 Q1014  
LIPR 171750Z 08005KT 020V100 CAVOK 25/18 Q1014  
LIPR 171720Z 06005KT 030V090 CAVOK 25/18 Q1014  
LIPR 171650Z 08006KT CAVOK 26/17 Q1014  
LIPR 171620Z 06007KT CAVOK 26/18 Q1014  
LIPR 171550Z 05007KT CAVOK 26/18 Q1014  
LIPR 171520Z 04008KT CAVOK 26/18 Q1014  
LIPR 171450Z 04005KT 350V080 CAVOK 27/19 Q1015  
LIPR 171420Z 01007KT 340V050 CAVOK 26/19 Q1015  
LIPR 171350Z 36008KT 330V030 CAVOK 26/18 Q1015  
LIPR 171320Z 01007KT 340V060 CAVOK 26/18 Q1015  
LIPR 171250Z 01009KT 9999 FEW025 26/17 Q1015
LIPR 171220Z 01010KT 9999 FEW025 26/18 Q1015
LIPR 171150Z 02011KT 9999 FEW025 26/20 Q1015
LIPR 171120Z 04010KT 350V050 9999 FEW025 26/19 Q1015
LIPR 171050Z 34010KT 310V010 9999 FEW025 26/20 Q1015
LIPR 171020Z 33007KT 300V010 9999 FEW025 27/19 Q1015
LIPR 170950Z 36006KT 320V050 9999 FEW025 26/17 Q1015
LIPR 170920Z 36006KT 320V050 9999 FEW025 25/19 Q1015
LIPR 170850Z 01006KT 350V050 CAVOK 25/19 Q1015  
LIPR 170820Z 02005KT 320V070 CAVOK 25/18 Q1015  
LIPR 170750Z 03007KT 360V060 9999 FEW025 25/18 Q1015
LIPR 170720Z 02008KT CAVOK 25/18 Q1015  
LIPR 170650Z 03009KT CAVOK 25/19 Q1015